Time;durP1;ratioP1;P1;durP2;ratioP2;P2;SDS_P1;SDS_P2;PMS_P1;PMS_P2;Temp;Humidity;BMP_temperature;BMP_pressure;BME280_temperature;BME280_humidity;BME280_pressure;Samples;Min_cycle;Max_cycle;Signal;HPM_P1;HPM_P2
2022/06/28 00:04:48;;;;;;;15.32;2.72;;;;;;;;;;4337271;33;20027;-72
2022/06/28 00:07:14;;;;;;;8.80;2.30;;;;;;;;;;4369261;32;20058;-72
2022/06/28 00:09:42;;;;;;;13.80;2.65;;;;;;;;;;4376512;32;20081;-72
2022/06/28 00:12:08;;;;;;;11.57;2.67;;;;;;;;;;4375876;32;20151;-72
2022/06/28 00:17:27;;;;;;;9.73;2.30;;;;;;;;;;4365563;32;20114;-72
2022/06/28 00:19:52;;;;;;;16.55;3.35;;;;;;;;;;4374582;32;20052;-72
2022/06/28 00:22:18;;;;;;;11.15;2.78;;;;;;;;;;4375522;32;20035;-72
2022/06/28 00:24:43;;;;;;;12.40;2.53;;;;;;;;;;4375194;32;20069;-72
2022/06/28 00:27:08;;;;;;;11.20;2.08;;;;;;;;;;4362862;32;20378;-72
2022/06/28 00:29:34;;;;;;;15.98;3.45;;;;;;;;;;4375537;32;20034;-72
2022/06/28 00:31:59;;;;;;;7.62;1.95;;;;;;;;;;4375664;32;20023;-72
2022/06/28 00:34:27;;;;;;;12.30;2.15;;;;;;;;;;4362434;32;20057;-72
2022/06/28 00:36:53;;;;;;;12.35;2.17;;;;;;;;;;4361523;32;20100;-72
2022/06/28 00:39:18;;;;;;;7.68;2.20;;;;;;;;;;4360169;33;20082;-72
2022/06/28 00:41:43;;;;;;;9.85;2.00;;;;;;;;;;4361792;32;20084;-72
2022/06/28 00:44:15;;;;;;;14.07;2.30;;;;;;;;;;4360361;32;20443;-72
2022/06/28 00:46:40;;;;;;;8.57;1.92;;;;;;;;;;4360204;32;20052;-72
2022/06/28 00:49:06;;;;;;;7.50;1.90;;;;;;;;;;4360681;33;20350;-72
2022/06/28 00:51:32;;;;;;;9.25;1.80;;;;;;;;;;4346993;33;20038;-72
2022/06/28 00:56:58;;;;;;;13.52;2.65;;;;;;;;;;4356944;33;20098;-72
2022/06/28 00:59:23;;;;;;;10.50;2.70;;;;;;;;;;4360173;32;20093;-72
2022/06/28 01:01:49;;;;;;;8.55;2.45;;;;;;;;;;4360603;32;20031;-72
2022/06/28 01:10:42;;;;;;;7.50;1.90;;;;;;;;;;4363599;32;20084;-72
2022/06/28 01:13:08;;;;;;;10.00;1.90;;;;;;;;;;4344732;33;20415;-72
2022/06/28 01:15:44;;;;;;;6.18;1.42;;;;;;;;;;4359598;33;20067;-72
2022/06/28 01:18:15;;;;;;;8.68;1.67;;;;;;;;;;4361188;33;20015;-72
2022/06/28 01:20:42;;;;;;;11.30;1.85;;;;;;;;;;4360920;33;20054;-72
2022/06/28 01:23:34;;;;;;;8.82;2.00;;;;;;;;;;4361071;33;20019;-72
2022/06/28 01:25:59;;;;;;;9.45;1.77;;;;;;;;;;4359233;33;20027;-72
2022/06/28 01:28:25;;;;;;;11.35;2.00;;;;;;;;;;4360690;33;20031;-72
2022/06/28 01:30:51;;;;;;;11.50;2.00;;;;;;;;;;4360907;33;20018;-72
2022/06/28 01:33:17;;;;;;;8.60;1.83;;;;;;;;;;4373862;32;20034;-72
2022/06/28 01:35:42;;;;;;;11.77;2.10;;;;;;;;;;4372949;32;20085;-72
2022/06/28 01:41:33;;;;;;;9.98;2.30;;;;;;;;;;4359961;33;20056;-72
2022/06/28 01:43:59;;;;;;;14.95;3.17;;;;;;;;;;4346288;33;20043;-72
2022/06/28 01:46:24;;;;;;;;;;;;;;;;;;4360118;33;20043;-72
2022/06/28 01:48:49;;;;;;;12.47;2.57;;;;;;;;;;4360178;33;19959;-72
2022/06/28 01:51:15;;;;;;;8.75;2.95;;;;;;;;;;4347042;33;20398;-72
2022/06/28 01:53:42;;;;;;;8.05;2.10;;;;;;;;;;4360285;33;20036;-72
2022/06/28 01:56:08;;;;;;;9.45;2.42;;;;;;;;;;4358121;32;20436;-72
2022/06/28 02:04:41;;;;;;;8.35;1.87;;;;;;;;;;4256794;33;20061;-72
2022/06/28 02:07:06;;;;;;;11.80;2.08;;;;;;;;;;4292665;33;20363;-72
2022/06/28 02:09:32;;;;;;;;;;;;;;;;;;4321171;33;20047;-72
2022/06/28 02:11:57;;;;;;;8.93;2.08;;;;;;;;;;4356760;32;19950;-72
2022/06/28 02:14:22;;;;;;;9.52;2.03;;;;;;;;;;4378949;32;20042;-72
2022/06/28 02:16:51;;;;;;;15.23;2.30;;;;;;;;;;4378252;32;20070;-72
2022/06/28 02:19:26;;;;;;;7.00;2.03;;;;;;;;;;4367404;32;20114;-72
2022/06/28 02:21:52;;;;;;;9.25;2.10;;;;;;;;;;4379298;32;20384;-72
2022/06/28 02:27:35;;;;;;;7.30;1.80;;;;;;;;;;4316407;33;20037;-72
2022/06/28 02:33:05;;;;;;;10.57;2.47;;;;;;;;;;4335767;33;20050;-71
2022/06/28 02:44:58;;;;;;;;;;;;;;;;;;;;;
2022/06/28 02:48:10;;;;;;;;;;;;;;;;;;;;;
2022/06/28 02:53:43;;;;;;;7.65;2.05;;;;;;;;;;4272736;33;20068;-72
2022/06/28 02:56:09;;;;;;;6.82;2.75;;;;;;;;;;4275301;33;20059;-72
2022/06/28 03:10:48;;;;;;;10.75;2.40;;;;;;;;;;4288206;33;20039;-72
2022/06/28 03:22:33;;;;;;;5.70;2.03;;;;;;;;;;4311606;33;20058;-72
2022/06/28 03:25:20;;;;;;;15.40;3.72;;;;;;;;;;4314816;33;20048;-71
2022/06/28 03:27:49;;;;;;;5.65;2.30;;;;;;;;;;4316093;33;20477;-71
2022/06/28 03:30:14;;;;;;;10.45;3.08;;;;;;;;;;4315481;33;20071;-72
2022/06/28 03:32:40;;;;;;;8.68;2.35;;;;;;;;;;4315966;33;20071;-72
2022/06/28 03:35:06;;;;;;;10.02;2.72;;;;;;;;;;4315888;33;20040;-72
2022/06/28 03:37:34;;;;;;;10.45;2.12;;;;;;;;;;4342111;32;20023;-72
2022/06/28 03:39:59;;;;;;;11.98;2.33;;;;;;;;;;4376592;32;20053;-71
2022/06/28 03:42:25;;;;;;;8.10;2.17;;;;;;;;;;4376508;32;20027;-72
2022/06/28 03:44:50;;;;;;;;;;;;;;;;;;4375114;32;20051;-72
2022/06/28 03:47:39;;;;;;;20.12;3.78;;;;;;;;;;4377115;32;19976;-72
2022/06/28 03:50:05;;;;;;;7.37;2.03;;;;;;;;;;4367090;32;20031;-72
2022/06/28 03:52:30;;;;;;;9.05;2.20;;;;;;;;;;4376745;32;20050;-72
2022/06/28 03:54:55;;;;;;;;;;;;;;;;;;4375466;32;20042;-72
2022/06/28 03:57:21;;;;;;;13.15;2.50;;;;;;;;;;4362300;32;19957;-71
2022/06/28 03:59:48;;;;;;;12.07;2.58;;;;;;;;;;4361300;32;20365;-72
2022/06/28 04:02:14;;;;;;;14.57;3.08;;;;;;;;;;4347559;33;20053;-71
2022/06/28 04:04:42;;;;;;;10.40;2.58;;;;;;;;;;4361373;32;20038;-71
2022/06/28 04:12:55;;;;;;;19.08;2.95;;;;;;;;;;4371889;32;20397;-72
2022/06/28 04:18:34;;;;;;;13.45;2.87;;;;;;;;;;4314688;33;20452;-72
2022/06/28 04:20:59;;;;;;;19.35;3.75;;;;;;;;;;4373732;32;20093;-72
2022/06/28 04:23:25;;;;;;;13.90;3.42;;;;;;;;;;4375192;32;20015;-71
2022/06/28 04:28:39;;;;;;;19.45;4.62;;;;;;;;;;4369915;32;20022;-71
2022/06/28 04:31:05;;;;;;;14.30;2.72;;;;;;;;;;4375719;32;20089;-71
2022/06/28 04:33:30;;;;;;;15.25;3.65;;;;;;;;;;4375305;32;20019;-71
2022/06/28 04:36:05;;;;;;;17.23;3.28;;;;;;;;;;4361469;32;20102;-72
2022/06/28 04:38:31;;;;;;;18.45;3.50;;;;;;;;;;4363515;32;20035;-71
2022/06/28 04:40:59;;;;;;;17.05;3.97;;;;;;;;;;4374667;32;20110;-73
2022/06/28 04:43:24;;;;;;;20.70;3.60;;;;;;;;;;4375956;32;20050;-71
2022/06/28 04:45:50;;;;;;;14.98;3.53;;;;;;;;;;4375753;32;20069;-71
2022/06/28 04:48:15;;;;;;;;;;;;;;;;;;4376467;32;20023;-73
2022/06/28 04:50:43;;;;;;;13.95;3.97;;;;;;;;;;4375368;32;19934;-71
2022/06/28 04:53:08;;;;;;;18.10;3.95;;;;;;;;;;4370042;32;20027;-71
2022/06/28 04:55:36;;;;;;;10.23;3.00;;;;;;;;;;4361096;32;20059;-71
2022/06/28 04:58:02;;;;;;;12.32;3.30;;;;;;;;;;4360140;32;20023;-71
2022/06/28 05:00:28;;;;;;;14.27;3.85;;;;;;;;;;4347000;33;20053;-71
2022/06/28 05:02:54;;;;;;;13.20;4.12;;;;;;;;;;4346683;33;20491;-71
2022/06/28 05:05:19;;;;;;;20.42;4.75;;;;;;;;;;4360696;32;20058;-72
2022/06/28 05:07:45;;;;;;;15.48;4.55;;;;;;;;;;4365565;32;20031;-71
2022/06/28 05:10:11;;;;;;;13.85;4.12;;;;;;;;;;4375233;32;20114;-72
2022/06/28 05:12:36;;;;;;;17.80;3.85;;;;;;;;;;4374915;32;20413;-72
2022/06/28 05:15:02;;;;;;;19.17;3.95;;;;;;;;;;4374850;32;20035;-72
2022/06/28 05:17:27;;;;;;;21.75;4.65;;;;;;;;;;4375360;32;20045;-71
2022/06/28 05:19:54;;;;;;;14.75;4.07;;;;;;;;;;4375154;32;20023;-71
2022/06/28 05:22:22;;;;;;;15.95;4.37;;;;;;;;;;4374636;32;20430;-72
2022/06/28 05:24:47;;;;;;;16.65;4.32;;;;;;;;;;4375498;32;20110;-72
2022/06/28 05:27:12;;;;;;;16.10;5.10;;;;;;;;;;4375006;32;20053;-73
2022/06/28 05:29:38;;;;;;;13.32;4.12;;;;;;;;;;4375223;32;20073;-70
2022/06/28 05:32:04;;;;;;;21.00;5.35;;;;;;;;;;4376174;32;20101;-71
2022/06/28 05:34:29;;;;;;;18.33;4.93;;;;;;;;;;4361773;32;20023;-72
2022/06/28 05:36:55;;;;;;;17.15;4.70;;;;;;;;;;4364493;32;20073;-71
2022/06/28 05:39:21;;;;;;;28.08;5.57;;;;;;;;;;4346552;33;20061;-71
2022/06/28 05:41:46;;;;;;;21.95;6.00;;;;;;;;;;4360930;32;20031;-71
2022/06/28 05:44:13;;;;;;;24.05;5.97;;;;;;;;;;4360042;33;20039;-72
2022/06/28 05:46:41;;;;;;;19.67;4.60;;;;;;;;;;4360406;32;20020;-71
2022/06/28 05:49:07;;;;;;;24.27;4.90;;;;;;;;;;4363246;32;20077;-72
2022/06/28 05:51:32;;;;;;;23.00;5.75;;;;;;;;;;4362561;32;20095;-71
2022/06/28 05:53:58;;;;;;;22.20;4.40;;;;;;;;;;4353811;32;20031;-73
2022/06/28 05:56:23;;;;;;;25.62;6.62;;;;;;;;;;4348816;33;20071;-71
2022/06/28 05:58:49;;;;;;;20.98;4.68;;;;;;;;;;4348590;33;20083;-71
2022/06/28 06:01:14;;;;;;;28.95;7.53;;;;;;;;;;4363623;32;20102;-72
2022/06/28 06:03:40;;;;;;;22.67;5.55;;;;;;;;;;4370574;32;20066;-72
2022/06/28 06:06:05;;;;;;;23.33;5.40;;;;;;;;;;4362643;32;20030;-71
2022/06/28 06:08:35;;;;;;;21.10;5.32;;;;;;;;;;4362895;32;20402;-71
2022/06/28 06:11:01;;;;;;;22.23;5.32;;;;;;;;;;4362314;33;20477;-71
2022/06/28 06:13:26;;;;;;;31.08;6.95;;;;;;;;;;4362913;32;20027;-71
2022/06/28 06:15:52;;;;;;;18.48;4.78;;;;;;;;;;4361192;32;20463;-71
2022/06/28 06:18:17;;;;;;;24.48;5.22;;;;;;;;;;4376084;32;20372;-71
2022/06/28 06:20:42;;;;;;;15.10;4.12;;;;;;;;;;4377374;32;20088;-71
2022/06/28 06:26:05;;;;;;;18.75;4.78;;;;;;;;;;4363888;32;20149;-72
2022/06/28 06:28:35;;;;;;;21.92;5.97;;;;;;;;;;4354220;32;20369;-72
2022/06/28 06:31:00;;;;;;;20.67;4.50;;;;;;;;;;4362681;32;20099;-72
2022/06/28 06:33:26;;;;;;;18.55;5.00;;;;;;;;;;4379141;32;20045;-70
2022/06/28 06:35:51;;;;;;;22.73;4.62;;;;;;;;;;4383942;32;20360;-73
2022/06/28 06:38:17;;;;;;;19.25;4.45;;;;;;;;;;4386119;32;20434;-72
2022/06/28 06:40:42;;;;;;;24.85;5.00;;;;;;;;;;4386180;32;20034;-71
2022/06/28 06:43:08;;;;;;;23.17;4.95;;;;;;;;;;4374833;32;20026;-72
2022/06/28 06:45:33;;;;;;;19.48;4.87;;;;;;;;;;4373497;32;20343;-71
2022/06/28 06:47:59;;;;;;;27.48;4.62;;;;;;;;;;4375096;32;20122;-71
2022/06/28 06:50:24;;;;;;;22.48;4.75;;;;;;;;;;4376749;32;20366;-72
2022/06/28 06:52:50;;;;;;;15.65;3.92;;;;;;;;;;4376079;32;20028;-71
2022/06/28 06:55:16;;;;;;;22.95;4.25;;;;;;;;;;4378866;32;20030;-72
2022/06/28 06:57:41;;;;;;;20.33;4.22;;;;;;;;;;4373997;32;20039;-73
2022/06/28 07:00:09;;;;;;;24.55;4.62;;;;;;;;;;4373478;32;20096;-72
2022/06/28 07:02:42;;;;;;;17.60;5.00;;;;;;;;;;4363471;32;20058;-72
2022/06/28 07:05:11;;;;;;;22.90;3.40;;;;;;;;;;4373869;32;20051;-72
2022/06/28 07:07:39;;;;;;;22.35;4.32;;;;;;;;;;4376522;32;20409;-72
2022/06/28 07:10:14;;;;;;;;;;;;;;;;;;;;;
2022/06/28 07:12:41;;;;;;;27.90;5.20;;;;;;;;;;4377077;32;20061;-72
2022/06/28 07:15:07;;;;;;;22.00;5.10;;;;;;;;;;4376310;32;20426;-72
2022/06/28 07:17:32;;;;;;;22.75;4.53;;;;;;;;;;4376241;32;20053;-71
2022/06/28 07:19:57;;;;;;;23.08;4.20;;;;;;;;;;4375826;32;20061;-71
2022/06/28 07:22:23;;;;;;;20.85;4.30;;;;;;;;;;4377041;32;20460;-71
2022/06/28 07:24:49;;;;;;;15.05;4.32;;;;;;;;;;4375365;32;20407;-71
2022/06/28 07:27:14;;;;;;;24.83;4.82;;;;;;;;;;4358805;32;20478;-71
2022/06/28 07:29:40;;;;;;;21.37;5.37;;;;;;;;;;4373972;32;20031;-73
2022/06/28 07:32:11;;;;;;;21.48;3.95;;;;;;;;;;4376509;32;20061;-72
2022/06/28 07:34:36;;;;;;;23.48;4.90;;;;;;;;;;4369735;32;20041;-71
2022/06/28 07:37:02;;;;;;;21.65;4.53;;;;;;;;;;4376717;32;20035;-72
2022/06/28 07:39:30;;;;;;;14.82;3.53;;;;;;;;;;4361040;32;20159;-71
2022/06/28 07:41:56;;;;;;;21.90;4.53;;;;;;;;;;4371291;32;20110;-72
2022/06/28 07:44:21;;;;;;;21.62;4.90;;;;;;;;;;4357944;32;20047;-73
2022/06/28 07:46:49;;;;;;;20.08;4.00;;;;;;;;;;4349031;32;20062;-71
2022/06/28 07:49:15;;;;;;;16.10;3.30;;;;;;;;;;4348085;33;20058;-72
2022/06/28 07:54:28;;;;;;;21.67;3.78;;;;;;;;;;4356203;32;20069;-72
2022/06/28 07:56:53;;;;;;;13.88;3.17;;;;;;;;;;4354191;32;20067;-71
2022/06/28 07:59:19;;;;;;;18.40;3.40;;;;;;;;;;4348048;33;20039;-72
2022/06/28 08:01:44;;;;;;;19.23;3.20;;;;;;;;;;4343878;32;20112;-72
2022/06/28 08:04:12;;;;;;;18.67;3.60;;;;;;;;;;4362763;32;20034;-72
2022/06/28 08:06:44;;;;;;;16.67;3.75;;;;;;;;;;4359471;32;20049;-73
2022/06/28 08:09:30;;;;;;;17.37;4.15;;;;;;;;;;4348019;33;20030;-72
2022/06/28 08:11:55;;;;;;;17.67;3.33;;;;;;;;;;4345448;33;20032;-73
2022/06/28 08:14:20;;;;;;;14.50;3.50;;;;;;;;;;4355613;33;20057;-72
2022/06/28 08:16:45;;;;;;;16.20;4.28;;;;;;;;;;4353708;32;20079;-72
2022/06/28 08:19:19;;;;;;;19.85;4.57;;;;;;;;;;4347840;32;20054;-72
2022/06/28 08:21:45;;;;;;;12.65;3.28;;;;;;;;;;4358527;32;20460;-72
2022/06/28 08:24:10;;;;;;;15.52;4.05;;;;;;;;;;4347032;32;20071;-73
2022/06/28 08:26:42;;;;;;;15.20;3.83;;;;;;;;;;4352992;33;20133;-72
2022/06/28 08:29:10;;;;;;;17.95;3.47;;;;;;;;;;4360971;32;20388;-73
2022/06/28 08:31:37;;;;;;;17.12;4.25;;;;;;;;;;4347025;32;20031;-73
2022/06/28 08:34:02;;;;;;;17.40;4.18;;;;;;;;;;4349888;33;20038;-71
2022/06/28 08:36:28;;;;;;;14.95;3.03;;;;;;;;;;4355488;32;20082;-72
2022/06/28 08:38:53;;;;;;;14.77;3.20;;;;;;;;;;4345723;33;20059;-71
2022/06/28 08:41:19;;;;;;;17.60;3.50;;;;;;;;;;4353655;33;20074;-71
2022/06/28 08:43:44;;;;;;;10.90;3.35;;;;;;;;;;4346182;33;20094;-72
2022/06/28 08:46:10;;;;;;;10.40;3.40;;;;;;;;;;4358095;33;20039;-72
2022/06/28 08:48:39;;;;;;;11.73;3.00;;;;;;;;;;4359767;32;20334;-72
2022/06/28 08:51:07;;;;;;;10.43;2.25;;;;;;;;;;4347889;33;20062;-73
2022/06/28 08:53:40;;;;;;;12.90;2.78;;;;;;;;;;4359695;32;20030;-71
2022/06/28 08:56:09;;;;;;;11.30;2.42;;;;;;;;;;4361871;32;20027;-72
2022/06/28 08:58:35;;;;;;;15.25;2.95;;;;;;;;;;4374766;32;20054;-71
2022/06/28 09:01:00;;;;;;;14.40;3.35;;;;;;;;;;4387038;32;20091;-73
2022/06/28 09:03:25;;;;;;;10.02;2.85;;;;;;;;;;4374200;32;20038;-71
2022/06/28 09:05:53;;;;;;;9.93;2.70;;;;;;;;;;4361419;32;20078;-72
2022/06/28 09:08:18;;;;;;;12.43;2.60;;;;;;;;;;4360349;32;20023;-71
2022/06/28 09:10:44;;;;;;;11.90;2.92;;;;;;;;;;4374527;32;20513;-72
2022/06/28 09:13:14;;;;;;;11.80;2.72;;;;;;;;;;4373913;32;20106;-72
2022/06/28 09:15:48;;;;;;;13.30;2.70;;;;;;;;;;4366579;32;20062;-73
2022/06/28 09:18:34;;;;;;;15.32;2.72;;;;;;;;;;4360087;32;20058;-71
2022/06/28 09:21:00;;;;;;;12.57;3.43;;;;;;;;;;4354063;32;20092;-73
2022/06/28 09:23:31;;;;;;;10.68;2.87;;;;;;;;;;4377817;32;20061;-71
2022/06/28 09:26:01;;;;;;;12.98;2.60;;;;;;;;;;4378482;32;20027;-71
2022/06/28 09:28:28;;;;;;;9.43;2.65;;;;;;;;;;4377830;32;20106;-72
2022/06/28 09:31:15;;;;;;;13.38;3.60;;;;;;;;;;4378787;32;20019;-72
2022/06/28 09:33:41;;;;;;;12.48;3.03;;;;;;;;;;4377848;32;20077;-72
2022/06/28 09:36:09;;;;;;;10.60;2.80;;;;;;;;;;4377771;32;20454;-73
2022/06/28 09:38:34;;;;;;;11.02;2.95;;;;;;;;;;4375720;32;20123;-70
2022/06/28 09:41:03;;;;;;;14.38;3.35;;;;;;;;;;4375183;32;20043;-73
2022/06/28 09:43:34;;;;;;;10.27;2.67;;;;;;;;;;4364937;32;20360;-72
2022/06/28 09:46:08;;;;;;;11.30;3.17;;;;;;;;;;4374123;32;20080;-72
2022/06/28 09:48:38;;;;;;;8.75;2.58;;;;;;;;;;4371814;32;20072;-69
2022/06/28 09:51:06;;;;;;;12.05;2.45;;;;;;;;;;4377344;32;20043;-72
2022/06/28 09:53:33;;;;;;;15.27;3.08;;;;;;;;;;4373966;32;20406;-72
2022/06/28 09:56:01;;;;;;;10.23;3.10;;;;;;;;;;4375986;32;20401;-73
2022/06/28 09:58:27;;;;;;;11.75;2.58;;;;;;;;;;4373730;32;20128;-71
2022/06/28 10:00:53;;;;;;;14.38;2.75;;;;;;;;;;4367688;32;20382;-71
2022/06/28 10:03:18;;;;;;;11.20;2.80;;;;;;;;;;4379458;32;20035;-72
2022/06/28 10:05:44;;;;;;;9.65;3.10;;;;;;;;;;4376953;32;20392;-72
2022/06/28 10:08:10;;;;;;;9.30;2.53;;;;;;;;;;4373973;32;20027;-72
2022/06/28 10:10:37;;;;;;;11.35;3.17;;;;;;;;;;4369089;32;20365;-74
2022/06/28 10:15:56;;;;;;;7.80;2.40;;;;;;;;;;4377940;32;20498;-72
2022/06/28 10:18:23;;;;;;;9.57;3.05;;;;;;;;;;4375254;32;20404;-71
2022/06/28 10:21:19;;;;;;;10.80;2.50;;;;;;;;;;4376247;32;20083;-71
2022/06/28 10:23:45;;;;;;;9.48;1.90;;;;;;;;;;4362260;32;20030;-73
2022/06/28 10:26:14;;;;;;;15.10;2.62;;;;;;;;;;4377301;32;20156;-72
2022/06/28 10:28:58;;;;;;;8.60;2.70;;;;;;;;;;4370891;32;20035;-72
2022/06/28 10:34:55;;;;;;;7.60;2.20;;;;;;;;;;4345950;32;20058;-72
2022/06/28 10:37:31;;;;;;;9.35;2.10;;;;;;;;;;4365487;32;20492;-73
2022/06/28 10:40:15;;;;;;;13.00;2.47;;;;;;;;;;4359098;32;20043;-72
2022/06/28 10:42:50;;;;;;;6.57;2.22;;;;;;;;;;4345909;33;20069;-74
2022/06/28 10:45:16;;;;;;;7.03;2.22;;;;;;;;;;4373729;32;20073;-72
2022/06/28 10:48:00;;;;;;;15.13;4.40;;;;;;;;;;4361359;33;20361;-72
2022/06/28 10:50:25;;;;;;;9.30;2.25;;;;;;;;;;4365171;32;20109;-72
2022/06/28 10:53:00;;;;;;;6.93;2.42;;;;;;;;;;4376165;32;20380;-71
2022/06/28 10:55:26;;;;;;;8.50;2.20;;;;;;;;;;4372196;32;20104;-72
2022/06/28 10:58:07;;;;;;;7.35;2.28;;;;;;;;;;4361586;32;20035;-73
2022/06/28 11:00:36;;;;;;;7.28;2.60;;;;;;;;;;4367228;32;20436;-73
2022/06/28 11:03:04;;;;;;;7.03;2.10;;;;;;;;;;4361802;32;20065;-73
2022/06/28 11:05:48;;;;;;;7.37;2.37;;;;;;;;;;4369139;32;20030;-73
2022/06/28 11:08:34;;;;;;;7.00;1.98;;;;;;;;;;4376705;32;20053;-71
2022/06/28 11:11:03;;;;;;;8.13;2.08;;;;;;;;;;4366394;32;20419;-71
2022/06/28 11:13:29;;;;;;;9.48;2.50;;;;;;;;;;4376301;32;20047;-72
2022/06/28 11:15:54;;;;;;;7.47;1.80;;;;;;;;;;4377074;32;20112;-72
2022/06/28 11:18:22;;;;;;;8.32;1.90;;;;;;;;;;4370580;32;20051;-73
2022/06/28 11:20:48;;;;;;;5.10;2.00;;;;;;;;;;4361096;33;20027;-73
2022/06/28 11:29:32;;;;;;;6.68;1.50;;;;;;;;;;4377483;32;20470;-74
2022/06/28 11:32:19;;;;;;;5.30;1.45;;;;;;;;;;4356422;32;20027;-72
2022/06/28 11:34:46;;;;;;;10.10;2.33;;;;;;;;;;4367243;32;20435;-72
2022/06/28 11:37:15;;;;;;;4.80;1.35;;;;;;;;;;4375381;32;20043;-73
2022/06/28 11:39:43;;;;;;;6.22;1.60;;;;;;;;;;4370178;32;20026;-72
2022/06/28 11:42:13;;;;;;;4.90;1.73;;;;;;;;;;4370142;32;20455;-73
2022/06/28 11:44:41;;;;;;;3.33;1.17;;;;;;;;;;4373252;32;20038;-72
2022/06/28 11:47:20;;;;;;;3.80;1.62;;;;;;;;;;4375235;32;20051;-73
2022/06/28 11:49:51;;;;;;;6.75;1.73;;;;;;;;;;4377265;32;20409;-74
2022/06/28 11:52:16;;;;;;;7.68;2.28;;;;;;;;;;4375914;32;20035;-73
2022/06/28 11:54:53;;;;;;;3.60;1.40;;;;;;;;;;4376426;32;20048;-72
2022/06/28 11:57:18;;;;;;;6.05;1.50;;;;;;;;;;4369132;32;20103;-73
2022/06/28 11:59:53;;;;;;;7.90;1.50;;;;;;;;;;4353772;32;20109;-73
2022/06/28 12:05:33;;;;;;;3.60;1.50;;;;;;;;;;4362008;32;20111;-73
2022/06/28 12:07:59;;;;;;;7.00;1.67;;;;;;;;;;4347593;33;20019;-73
2022/06/28 12:10:29;;;;;;;7.05;1.90;;;;;;;;;;4360390;32;20089;-73
2022/06/28 12:12:55;;;;;;;7.82;2.55;;;;;;;;;;4369645;32;20070;-73
2022/06/28 12:15:30;;;;;;;4.15;1.27;;;;;;;;;;4375852;32;20098;-73
2022/06/28 12:17:58;;;;;;;3.35;1.23;;;;;;;;;;4376585;32;20439;-72
2022/06/28 12:20:24;;;;;;;3.15;1.25;;;;;;;;;;4375524;32;20024;-73
2022/06/28 12:22:59;;;;;;;4.90;1.37;;;;;;;;;;4375537;32;20027;-73
2022/06/28 12:25:24;;;;;;;9.50;2.00;;;;;;;;;;4363857;32;20101;-73
2022/06/28 12:27:50;;;;;;;5.30;1.62;;;;;;;;;;4367830;32;20014;-73
2022/06/28 12:30:15;;;;;;;3.12;1.33;;;;;;;;;;4352950;32;20019;-73
2022/06/28 12:32:44;;;;;;;2.35;1.20;;;;;;;;;;4369835;32;20035;-73
2022/06/28 12:35:12;;;;;;;3.33;1.25;;;;;;;;;;4348496;32;20081;-72
2022/06/28 12:37:38;;;;;;;5.55;2.12;;;;;;;;;;4367404;32;20330;-73
2022/06/28 12:40:04;;;;;;;5.53;1.77;;;;;;;;;;4369028;32;20046;-71
2022/06/28 12:42:30;;;;;;;4.37;1.23;;;;;;;;;;4374573;32;20034;-73
2022/06/28 12:44:56;;;;;;;4.90;1.87;;;;;;;;;;4375282;32;20445;-73
2022/06/28 12:47:22;;;;;;;8.02;1.58;;;;;;;;;;4375552;32;20084;-73
2022/06/28 12:49:47;;;;;;;3.75;1.30;;;;;;;;;;4366102;32;20028;-73
2022/06/28 12:52:12;;;;;;;5.25;2.17;;;;;;;;;;4360848;32;20027;-74
2022/06/28 12:54:41;;;;;;;5.43;2.20;;;;;;;;;;4360109;32;20023;-72
2022/06/28 12:57:06;;;;;;;5.22;1.85;;;;;;;;;;4359706;32;20035;-74
2022/06/28 12:59:32;;;;;;;4.70;1.45;;;;;;;;;;4360383;32;20027;-74
2022/06/28 13:01:58;;;;;;;4.07;1.27;;;;;;;;;;4360433;32;20054;-74
2022/06/28 13:04:24;;;;;;;2.67;1.40;;;;;;;;;;4360216;32;20031;-72
2022/06/28 13:06:49;;;;;;;4.93;1.60;;;;;;;;;;4372001;32;20034;-73
2022/06/28 13:09:14;;;;;;;3.87;1.48;;;;;;;;;;4367711;32;20440;-73
2022/06/28 13:11:40;;;;;;;4.75;1.48;;;;;;;;;;4348009;32;20039;-74
2022/06/28 13:14:39;;;;;;;3.78;1.65;;;;;;;;;;4380891;32;20142;-74
2022/06/28 13:17:14;;;;;;;8.95;1.65;;;;;;;;;;4374480;32;20069;-73
2022/06/28 13:19:39;;;;;;;7.28;2.22;;;;;;;;;;4374911;32;20053;-73
2022/06/28 13:22:05;;;;;;;7.43;2.97;;;;;;;;;;4368719;32;20456;-74
2022/06/28 13:24:31;;;;;;;4.45;1.98;;;;;;;;;;4374776;32;20054;-73
2022/06/28 13:26:57;;;;;;;6.22;2.35;;;;;;;;;;4361180;32;20022;-72
2022/06/28 13:29:25;;;;;;;5.37;2.45;;;;;;;;;;4361401;32;20338;-73
2022/06/28 13:31:51;;;;;;;4.68;1.83;;;;;;;;;;4372921;32;20132;-73
2022/06/28 13:34:39;;;;;;;5.03;1.83;;;;;;;;;;4372053;32;20444;-74
2022/06/28 13:37:05;;;;;;;5.12;2.28;;;;;;;;;;4368899;32;20023;-73
2022/06/28 13:39:31;;;;;;;4.20;1.48;;;;;;;;;;4368719;32;20026;-72
2022/06/28 13:41:56;;;;;;;5.37;1.85;;;;;;;;;;4365679;32;20035;-72
2022/06/28 13:44:22;;;;;;;5.05;2.03;;;;;;;;;;4356310;32;20111;-73
2022/06/28 13:46:47;;;;;;;5.37;2.50;;;;;;;;;;4365558;32;20450;-74
2022/06/28 13:49:15;;;;;;;9.23;2.50;;;;;;;;;;4370931;32;20023;-75
2022/06/28 13:51:46;;;;;;;6.70;1.90;;;;;;;;;;4373551;32;20066;-74
2022/06/28 13:54:12;;;;;;;7.47;2.20;;;;;;;;;;4362270;32;20115;-72
2022/06/28 13:56:41;;;;;;;7.82;1.98;;;;;;;;;;4360593;32;20031;-73
2022/06/28 14:02:17;;;;;;;6.05;2.10;;;;;;;;;;4347312;33;20073;-73
2022/06/28 14:04:42;;;;;;;43.60;6.60;;;;;;;;;;4352736;32;20231;-74
2022/06/28 14:07:07;;;;;;;8.43;1.92;;;;;;;;;;4358675;32;20075;-73
2022/06/28 14:09:33;;;;;;;6.78;2.35;;;;;;;;;;4366374;32;20080;-73
2022/06/28 14:12:01;;;;;;;6.35;2.87;;;;;;;;;;4372516;32;20429;-73
2022/06/28 14:14:26;;;;;;;6.90;2.85;;;;;;;;;;4373824;32;20410;-74
2022/06/28 14:17:01;;;;;;;6.57;2.30;;;;;;;;;;4377199;32;20069;-73
2022/06/28 14:19:26;;;;;;;5.20;2.37;;;;;;;;;;4375303;32;20046;-71
2022/06/28 14:21:51;;;;;;;16.93;6.60;;;;;;;;;;4370764;32;20080;-73
2022/06/28 14:24:17;;;;;;;6.57;2.70;;;;;;;;;;4365689;32;20123;-73
2022/06/28 14:26:51;;;;;;;9.35;2.67;;;;;;;;;;4374987;32;20030;-73
2022/06/28 14:29:17;;;;;;;7.15;2.30;;;;;;;;;;4374727;32;20084;-72
2022/06/28 14:31:42;;;;;;;6.07;2.62;;;;;;;;;;4363580;32;20154;-73
2022/06/28 14:34:09;;;;;;;8.75;2.55;;;;;;;;;;4347911;33;20405;-73
2022/06/28 14:36:34;;;;;;;4.32;1.80;;;;;;;;;;4361901;32;20031;-73
2022/06/28 14:39:00;;;;;;;12.30;8.07;;;;;;;;;;4362450;32;20365;-73
2022/06/28 14:41:26;;;;;;;7.37;2.12;;;;;;;;;;4361863;32;20035;-73
2022/06/28 14:43:52;;;;;;;6.07;2.10;;;;;;;;;;4362227;32;20397;-73
2022/06/28 14:46:17;;;;;;;4.30;2.62;;;;;;;;;;4362267;32;20046;-73
2022/06/28 14:48:43;;;;;;;7.75;3.60;;;;;;;;;;4362051;32;20039;-73
2022/06/28 14:51:10;;;;;;;6.20;2.75;;;;;;;;;;4349094;33;20073;-73
2022/06/28 14:53:36;;;;;;;7.62;2.28;;;;;;;;;;4362432;32;20400;-73
2022/06/28 14:56:01;;;;;;;5.87;2.05;;;;;;;;;;4363004;32;20035;-73
2022/06/28 14:58:27;;;;;;;6.68;2.20;;;;;;;;;;4362822;32;20390;-72
2022/06/28 15:00:52;;;;;;;4.78;1.87;;;;;;;;;;4362891;32;20100;-73
2022/06/28 15:03:17;;;;;;;11.25;3.03;;;;;;;;;;4362119;32;20057;-74
2022/06/28 15:05:43;;;;;;;7.35;2.62;;;;;;;;;;4361906;32;20058;-73
2022/06/28 15:08:11;;;;;;;5.97;2.20;;;;;;;;;;4362232;32;20063;-73
2022/06/28 15:10:37;;;;;;;6.10;1.90;;;;;;;;;;4361550;33;20099;-73
2022/06/28 15:13:02;;;;;;;8.15;2.45;;;;;;;;;;4361807;32;20459;-73
2022/06/28 15:15:27;;;;;;;5.05;2.15;;;;;;;;;;4361640;32;20112;-73
2022/06/28 15:17:53;;;;;;;4.78;1.92;;;;;;;;;;4362617;32;20049;-73
2022/06/28 15:20:18;;;;;;;5.00;1.95;;;;;;;;;;4362046;32;20398;-72
2022/06/28 15:31:19;;;;;;;7.50;2.62;;;;;;;;;;4355608;33;20069;-73
2022/06/28 15:33:44;;;;;;;7.07;1.42;;;;;;;;;;4348233;33;20071;-72
2022/06/28 15:36:10;;;;;;;8.52;2.70;;;;;;;;;;4362285;32;20377;-72
2022/06/28 15:38:35;;;;;;;6.80;2.03;;;;;;;;;;4361109;32;20023;-73
2022/06/28 15:41:01;;;;;;;5.22;1.80;;;;;;;;;;4361080;33;20315;-74
2022/06/28 15:43:26;;;;;;;6.35;2.20;;;;;;;;;;4362801;32;20444;-73
2022/06/28 15:45:52;;;;;;;7.75;2.40;;;;;;;;;;4361510;32;20192;-73
2022/06/28 15:48:19;;;;;;;5.10;1.80;;;;;;;;;;4361544;32;20027;-73
2022/06/28 15:50:44;;;;;;;9.48;2.35;;;;;;;;;;4361172;32;20150;-74
2022/06/28 15:53:10;;;;;;;4.00;1.80;;;;;;;;;;4362880;32;20033;-73
2022/06/28 15:55:35;;;;;;;7.25;2.00;;;;;;;;;;4362041;32;20057;-72
2022/06/28 15:58:01;;;;;;;7.00;2.30;;;;;;;;;;4347839;33;20035;-73
2022/06/28 16:00:32;;;;;;;7.95;2.90;;;;;;;;;;4361774;32;20380;-73
2022/06/28 16:02:58;;;;;;;4.10;1.55;;;;;;;;;;4361409;32;20027;-74
2022/06/28 16:05:24;;;;;;;8.02;2.30;;;;;;;;;;4347341;33;20127;-72
2022/06/28 16:08:05;;;;;;;8.23;1.62;;;;;;;;;;4360900;32;20027;-73
2022/06/28 16:10:34;;;;;;;8.52;1.60;;;;;;;;;;4361314;33;20019;-73
2022/06/28 16:13:00;;;;;;;5.40;1.98;;;;;;;;;;4361701;32;20031;-73
2022/06/28 16:18:34;;;;;;;4.80;1.75;;;;;;;;;;4376982;32;20037;-73
2022/06/28 16:21:08;;;;;;;8.73;1.98;;;;;;;;;;4375364;32;20027;-73
2022/06/28 16:23:34;;;;;;;4.12;1.65;;;;;;;;;;4362576;32;20456;-73
2022/06/28 16:25:59;;;;;;;4.32;1.58;;;;;;;;;;4361097;32;20031;-73
2022/06/28 16:28:34;;;;;;;5.43;2.78;;;;;;;;;;4362060;32;20070;-74
2022/06/28 16:30:59;;;;;;;6.03;1.62;;;;;;;;;;4361474;32;20015;-73
2022/06/28 16:33:25;;;;;;;4.70;2.08;;;;;;;;;;4361983;32;20085;-73
2022/06/28 16:35:50;;;;;;;5.75;2.08;;;;;;;;;;4360749;32;20028;-73
2022/06/28 16:38:27;;;;;;;3.80;1.77;;;;;;;;;;4360401;32;20019;-71